Time;durP1;ratioP1;P1;durP2;ratioP2;P2;SDS_P1;SDS_P2;PMS_P1;PMS_P2;Temp;Humidity;BMP_temperature;BMP_pressure;BME280_temperature;BME280_humidity;BME280_pressure;Samples;Min_cycle;Max_cycle;Signal;HPM_P1;HPM_P2
2022/08/22 00:01:04;;;;;;;7.60;2.65;;;;;;;23.41;48.73;101143.13;4974776;28;20490;-79
2022/08/22 00:03:32;;;;;;;11.95;3.58;;;;;;;23.45;48.47;101138.38;4962641;28;20108;-81
2022/08/22 00:06:34;;;;;;;8.43;2.47;;;;;;;23.32;49.56;101125.94;4975820;28;20038;-80
2022/08/22 00:09:32;;;;;;;7.72;2.42;;;;;;;23.47;48.98;101116.47;4974936;28;20098;-80
2022/08/22 00:12:13;;;;;;;7.22;2.85;;;;;;;23.52;48.83;101111.31;4971597;28;20065;-81
2022/08/22 00:14:49;;;;;;;9.45;2.88;;;;;;;23.66;48.79;101116.19;4975739;28;20019;-80
2022/08/22 00:17:26;;;;;;;7.35;2.80;;;;;;;23.68;48.57;101111.00;4975891;28;20078;-79
2022/08/22 00:20:18;;;;;;;10.57;2.63;;;;;;;23.69;48.87;101120.97;4975884;28;20081;-79
2022/08/22 00:22:52;;;;;;;7.18;2.88;;;;;;;23.62;49.20;101118.13;4975677;28;20050;-80
2022/08/22 00:25:38;;;;;;;7.30;2.97;;;;;;;23.67;48.98;101106.63;4975929;28;20628;-80
2022/08/22 00:28:26;;;;;;;12.50;2.60;;;;;;;23.63;49.52;101099.41;4975730;28;20031;-79
2022/08/22 00:31:21;;;;;;;9.43;2.90;;;;;;;23.70;49.35;101103.03;4975213;28;20082;-80
2022/08/22 00:34:11;;;;;;;7.75;2.40;;;;;;;23.69;49.64;101095.84;4973440;28;20486;-79
2022/08/22 00:37:09;;;;;;;7.20;2.20;;;;;;;23.58;50.54;101099.75;4975549;28;20034;-80
2022/08/22 00:39:43;;;;;;;6.28;2.20;;;;;;;23.52;50.76;101099.34;4967811;28;20046;-80
2022/08/22 00:42:30;;;;;;;7.18;2.30;;;;;;;23.36;51.77;101090.53;4975519;28;20031;-80
2022/08/22 00:45:21;;;;;;;9.10;2.88;;;;;;;23.47;51.57;101081.00;4975349;28;20430;-82
2022/08/22 00:47:58;;;;;;;15.65;2.88;;;;;;;23.53;51.38;101085.00;4974046;28;20019;-79
2022/08/22 00:50:40;;;;;;;6.65;2.38;;;;;;;23.56;51.41;101083.41;4975239;28;20117;-82
2022/08/22 00:53:16;;;;;;;7.78;2.17;;;;;;;23.50;51.17;101065.47;4975019;28;20107;-80
2022/08/22 00:55:47;;;;;;;5.18;2.00;;;;;;;23.45;51.62;101063.88;4975274;28;20041;-80
2022/08/22 00:58:53;;;;;;;6.00;2.30;;;;;;;23.34;52.71;101070.59;4975339;28;20025;-79
2022/08/22 01:01:28;;;;;;;8.77;2.40;;;;;;;23.47;51.42;101069.03;4975013;28;20033;-80
2022/08/22 01:04:08;;;;;;;7.47;2.20;;;;;;;23.32;52.76;101067.41;4975361;28;20026;-80
2022/08/22 01:06:51;;;;;;;5.40;2.00;;;;;;;23.39;52.28;101056.28;4975019;28;20053;-79
2022/08/22 01:09:45;;;;;;;7.57;2.08;;;;;;;23.23;53.54;101046.25;4974980;28;20394;-80
2022/08/22 01:12:37;;;;;;;8.00;2.35;;;;;;;23.41;52.55;101042.72;4973516;28;20367;-81
2022/08/22 01:15:14;;;;;;;9.23;2.63;;;;;;;23.41;52.75;101039.94;4974723;28;20035;-81
2022/08/22 01:17:40;;;;;;;5.13;2.47;;;;;;;23.40;52.44;101046.72;4974930;28;20051;-80
2022/08/22 01:20:14;;;;;;;6.07;2.22;;;;;;;23.37;52.57;101044.72;4974307;28;20050;-79
2022/08/22 01:23:22;;;;;;;7.00;2.60;;;;;;;23.38;52.60;101043.53;4974567;28;20062;-79
2022/08/22 01:26:25;;;;;;;3.47;1.50;;;;;;;23.37;52.64;101039.94;4965819;28;20118;-80
2022/08/22 01:29:02;;;;;;;3.40;1.50;;;;;;;23.41;51.97;101037.94;4974863;28;20031;-80
2022/08/22 01:32:00;;;;;;;4.53;1.90;;;;;;;23.47;52.38;101041.16;4972878;28;20049;-80
2022/08/22 01:34:47;;;;;;;4.95;1.95;;;;;;;23.46;52.68;101045.16;4974544;28;20031;-80
2022/08/22 01:37:24;;;;;;;5.13;1.67;;;;;;;23.41;52.45;101043.53;4974334;28;20034;-81
2022/08/22 01:40:01;;;;;;;3.97;1.90;;;;;;;23.37;53.14;101044.72;4973269;28;20035;-81
2022/08/22 01:42:45;;;;;;;3.50;1.60;;;;;;;23.50;52.62;101032.81;4974218;28;20122;-80
2022/08/22 01:45:26;;;;;;;3.30;1.52;;;;;;;23.39;53.11;101006.88;4974231;28;20434;-80
2022/08/22 01:48:05;;;;;;;6.70;1.65;;;;;;;23.35;53.52;101003.31;4971710;28;20034;-79
2022/08/22 01:50:56;;;;;;;2.22;1.50;;;;;;;23.46;52.71;101012.47;4974067;28;20045;-82
2022/08/22 01:53:38;;;;;;;3.45;1.98;;;;;;;23.46;53.25;101006.09;4964976;28;20035;-81
2022/08/22 01:56:11;;;;;;;4.45;1.50;;;;;;;23.43;52.66;101010.50;4974123;28;20034;-80
2022/08/22 01:58:57;;;;;;;4.53;1.30;;;;;;;23.41;53.62;101009.25;4974322;28;20046;-81
2022/08/22 02:01:35;;;;;;;2.90;1.17;;;;;;;23.42;53.88;101010.84;4974197;28;20080;-80
2022/08/22 02:04:08;;;;;;;2.25;1.10;;;;;;;23.38;53.88;101004.50;4974098;28;20030;-80
2022/08/22 02:06:57;;;;;;;2.22;0.90;;;;;;;23.47;53.44;101010.47;4973995;28;20035;-80
2022/08/22 02:12:15;;;;;;;2.13;1.23;;;;;;;23.46;53.90;101006.09;5045198;23;20099;-81
2022/08/22 02:14:53;;;;;;;1.15;1.00;;;;;;;23.43;54.25;100995.75;4992085;28;20121;-80
2022/08/22 02:17:30;;;;;;;1.17;0.95;;;;;;;23.49;53.73;100996.94;4992274;28;20030;-80
2022/08/22 02:20:24;;;;;;;3.15;1.75;;;;;;;23.56;53.52;100993.38;4993112;28;20050;-80
2022/08/22 02:23:18;;;;;;;2.00;1.80;;;;;;;23.50;53.81;100981.78;4993652;28;20026;-80
2022/08/22 02:26:07;;;;;;;2.25;1.95;;;;;;;23.49;54.31;100980.22;4992186;28;20034;-80
2022/08/22 02:29:05;;;;;;;4.55;2.83;;;;;;;23.57;54.50;100973.44;4991735;28;20389;-82
2022/08/22 02:31:55;;;;;;;4.00;3.13;;;;;;;23.57;53.77;100976.22;4992422;28;20084;-80
2022/08/22 02:35:02;;;;;;;3.35;2.55;;;;;;;23.58;54.14;100974.25;4993181;28;20443;-80
2022/08/22 02:37:46;;;;;;;5.93;2.38;;;;;;;23.67;54.38;100977.50;4964520;28;20038;-80
2022/08/22 02:40:36;;;;;;;4.25;2.22;;;;;;;23.63;54.25;100980.25;4991723;28;20088;-80
2022/08/22 02:43:06;;;;;;;;;;;;;;;23.62;54.55;100973.09;4993815;28;20041;-80
2022/08/22 02:45:54;;;;;;;5.03;4.03;;;;;;;23.67;54.84;100974.72;4993089;28;19953;-80
2022/08/22 02:48:43;;;;;;;9.07;4.70;;;;;;;23.63;54.55;100973.88;4993182;28;20365;-81
2022/08/22 02:51:30;;;;;;;6.63;4.80;;;;;;;23.63;54.31;100963.53;4992621;28;20042;-81
2022/08/22 02:54:14;;;;;;;7.45;5.65;;;;;;;23.67;54.45;100966.34;4992825;28;20030;-81
2022/08/22 02:56:56;;;;;;;9.60;7.95;;;;;;;23.65;54.60;100966.72;4993003;28;20122;-80
2022/08/22 02:59:34;;;;;;;13.90;12.73;;;;;;;23.68;54.31;100963.16;4992008;28;20507;-82
2022/08/22 03:02:32;;;;;;;11.25;6.28;;;;;;;23.74;54.90;100955.97;4990236;28;20034;-80
2022/08/22 03:05:22;;;;;;;8.55;4.32;;;;;;;23.83;54.42;100938.84;4993069;28;20034;-83
2022/08/22 03:08:06;;;;;;;10.10;5.45;;;;;;;23.80;54.89;100942.41;4992767;28;20061;-80
2022/08/22 03:10:39;;;;;;;8.77;5.28;;;;;;;23.84;54.63;100942.44;4992166;28;20467;-82
2022/08/22 03:13:16;;;;;;;8.82;7.90;;;;;;;23.88;54.44;100938.44;4992292;28;20034;-81
2022/08/22 03:15:51;;;;;;;8.15;5.10;;;;;;;23.79;54.84;100926.88;4992547;28;20041;-80
2022/08/22 03:18:29;;;;;;;7.40;5.97;;;;;;;23.89;54.22;100928.88;4992985;28;20041;-82
2022/08/22 03:21:23;;;;;;;9.43;8.27;;;;;;;23.91;54.34;100920.91;4992655;28;20030;-80
2022/08/22 03:23:59;;;;;;;10.48;9.57;;;;;;;23.88;54.59;100920.88;4992779;28;20038;-80
2022/08/22 03:26:35;;;;;;;9.23;4.97;;;;;;;23.90;54.20;100913.72;4992818;28;20026;-80
2022/08/22 03:29:10;;;;;;;5.32;2.90;;;;;;;23.93;54.32;100909.34;4991481;28;20464;-80
2022/08/22 03:31:36;;;;;;;9.38;8.57;;;;;;;23.90;54.57;100899.78;4992183;28;20481;-80
2022/08/22 03:34:20;;;;;;;9.27;8.40;;;;;;;23.85;55.38;100900.16;4992552;28;20030;-82
2022/08/22 03:37:00;;;;;;;8.38;5.47;;;;;;;23.93;54.42;100893.38;4992627;28;20415;-80
2022/08/22 03:39:43;;;;;;;10.82;7.20;;;;;;;23.89;54.90;100892.59;4992642;28;20101;-80
2022/08/22 03:42:34;;;;;;;9.57;8.73;;;;;;;23.82;55.08;100894.59;4991319;28;20130;-82
2022/08/22 03:45:41;;;;;;;11.55;8.20;;;;;;;23.91;54.90;100906.94;4994555;28;20037;-81
2022/08/22 03:48:35;;;;;;;11.80;10.90;;;;;;;23.89;55.28;100902.97;4916974;29;20455;-83
2022/08/22 03:51:32;;;;;;;10.80;9.48;;;;;;;23.97;54.81;100910.13;4987136;28;20096;-80
2022/08/22 03:54:14;;;;;;;7.60;6.88;;;;;;;23.95;55.30;100901.34;4992786;28;20117;-80
2022/08/22 03:56:58;;;;;;;9.18;8.30;;;;;;;23.93;55.40;100896.19;4994479;28;20520;-80
2022/08/22 03:59:52;;;;;;;7.85;7.13;;;;;;;23.99;54.70;100888.19;4994615;28;20023;-81
2022/08/22 04:02:38;;;;;;;16.33;15.13;;;;;;;24.03;54.82;100886.19;4996118;28;20026;-80
2022/08/22 04:05:41;;;;;;;18.13;16.75;;;;;;;23.93;55.40;100878.63;4995957;28;20027;-82
2022/08/22 04:08:19;;;;;;;17.92;16.67;;;;;;;24.03;54.92;100880.59;4995706;28;20030;-82
2022/08/22 04:11:22;;;;;;;13.18;12.10;;;;;;;23.95;55.10;100871.44;4994852;28;20046;-80
2022/08/22 04:13:47;;;;;;;12.70;11.60;;;;;;;24.05;54.80;100861.47;4995705;28;20026;-80
2022/08/22 04:16:53;;;;;;;10.65;9.75;;;;;;;24.21;54.38;100870.22;4995535;28;20376;-80
2022/08/22 04:19:55;;;;;;;13.15;12.07;;;;;;;24.03;55.35;100861.06;4995680;28;20046;-80
2022/08/22 04:22:39;;;;;;;14.27;10.48;;;;;;;24.03;54.68;100858.28;4995541;28;20030;-80
2022/08/22 04:25:17;;;;;;;16.67;15.65;;;;;;;23.97;55.22;100848.75;5010320;28;20085;-79
2022/08/22 04:27:56;;;;;;;11.10;10.38;;;;;;;23.91;55.38;100839.19;4995380;28;20101;-80
2022/08/22 04:30:42;;;;;;;9.27;8.55;;;;;;;23.92;55.63;100849.94;4995063;28;20022;-82
2022/08/22 04:33:24;;;;;;;9.65;8.93;;;;;;;23.94;55.08;100841.94;4995349;28;20031;-79
2022/08/22 04:36:12;;;;;;;19.55;18.10;;;;;;;23.94;55.09;100830.00;4995333;28;20101;-81
2022/08/22 04:38:53;;;;;;;11.68;10.98;;;;;;;23.94;55.53;100832.78;4995344;28;20018;-80
2022/08/22 04:41:31;;;;;;;8.60;7.82;;;;;;;23.93;55.59;100829.19;4993782;28;20049;-80
2022/08/22 04:44:04;;;;;;;8.18;7.45;;;;;;;23.97;55.24;100832.00;4995305;28;20073;-83
2022/08/22 04:47:01;;;;;;;8.85;8.23;;;;;;;23.86;56.21;100829.22;4994836;28;20512;-80
2022/08/22 04:49:42;;;;;;;7.57;6.88;;;;;;;23.99;55.25;100835.19;4993861;28;20033;-83
2022/08/22 04:52:28;;;;;;;8.60;7.97;;;;;;;24.02;55.28;100840.72;4994698;28;20026;-79
2022/08/22 04:55:14;;;;;;;15.65;14.65;;;;;;;24.00;55.59;100831.19;4963857;28;20042;-81
2022/08/22 04:57:52;;;;;;;12.68;9.48;;;;;;;23.97;55.56;100830.00;4993774;28;20476;-80
2022/08/22 05:00:18;;;;;;;8.73;7.90;;;;;;;24.10;55.30;100821.97;4994707;28;20032;-80
2022/08/22 05:02:50;;;;;;;7.30;6.70;;;;;;;24.38;54.38;100831.50;4993245;28;20113;-80
2022/08/22 05:05:23;;;;;;;8.98;8.10;;;;;;;24.14;55.29;100833.94;4994650;28;20073;-81
2022/08/22 05:07:55;;;;;;;14.07;13.18;;;;;;;24.07;55.68;100826.38;4994709;28;20481;-81
2022/08/22 05:10:25;;;;;;;16.23;15.32;;;;;;;24.10;55.71;100821.97;4994201;28;20070;-83
2022/08/22 05:13:00;;;;;;;15.13;14.10;;;;;;;24.11;55.61;100823.59;4994842;28;20534;-80
2022/08/22 05:15:32;;;;;;;9.45;8.85;;;;;;;24.14;55.76;100821.97;4994362;28;20029;-80
2022/08/22 05:18:05;;;;;;;10.77;9.93;;;;;;;24.15;55.42;100826.34;4994489;28;20030;-81
2022/08/22 05:20:32;;;;;;;6.90;6.40;;;;;;;24.14;55.41;100816.41;4992626;28;20480;-80
2022/08/22 05:23:11;;;;;;;8.15;7.57;;;;;;;24.26;55.26;100815.97;4993031;28;20034;-80
2022/08/22 05:25:41;;;;;;;7.70;7.15;;;;;;;24.09;56.19;100812.00;4993983;28;20026;-79
2022/08/22 05:28:35;;;;;;;10.20;9.38;;;;;;;24.15;55.88;100810.41;4994192;28;20113;-80
2022/08/22 05:31:10;;;;;;;12.82;12.13;;;;;;;24.15;55.88;100818.78;4993177;28;20046;-80
2022/08/22 05:33:41;;;;;;;9.45;8.70;;;;;;;24.12;55.93;100811.22;4992849;28;20033;-82
2022/08/22 05:36:29;;;;;;;9.73;8.82;;;;;;;24.15;56.00;100807.59;4994250;28;20018;-80
2022/08/22 05:39:10;;;;;;;14.15;13.23;;;;;;;24.23;55.77;100811.97;4993885;28;20031;-80
2022/08/22 05:41:38;;;;;;;14.73;13.88;;;;;;;24.27;55.37;100809.19;4992104;28;20109;-80
2022/08/22 05:44:14;;;;;;;12.07;11.23;;;;;;;24.18;56.06;100806.00;4994122;28;20026;-81
2022/08/22 05:46:44;;;;;;;7.03;6.53;;;;;;;24.20;55.86;100801.63;4974727;28;20050;-80
2022/08/22 05:49:29;;;;;;;19.60;18.20;;;;;;;24.18;56.07;100804.03;4977858;28;20077;-80
2022/08/22 05:52:06;;;;;;;6.60;6.10;;;;;;;24.22;56.00;100806.78;4993397;28;20062;-81
2022/08/22 05:54:35;;;;;;;13.45;12.65;;;;;;;24.13;56.74;100798.06;4993603;28;20098;-80
2022/08/22 05:57:22;;;;;;;14.77;13.88;;;;;;;24.21;56.38;100808.00;4992766;28;20041;-82
2022/08/22 05:59:58;;;;;;;13.48;12.48;;;;;;;24.21;56.69;100794.84;4993741;28;20026;-80
2022/08/22 06:02:47;;;;;;;15.52;14.43;;;;;;;24.31;56.22;100788.41;4993717;28;20450;-79
2022/08/22 06:05:22;;;;;;;17.15;16.02;;;;;;;24.34;56.02;100789.63;4993805;28;20108;-83
2022/08/22 06:07:49;;;;;;;21.67;20.17;;;;;;;24.36;56.18;100784.44;4993700;28;20502;-81
2022/08/22 06:10:30;;;;;;;21.05;19.52;;;;;;;24.32;56.79;100789.19;4993202;28;20074;-83
2022/08/22 06:13:13;;;;;;;23.35;21.67;;;;;;;24.31;56.58;100776.44;4992204;28;20054;-79
2022/08/22 06:15:44;;;;;;;25.75;23.65;;;;;;;24.35;56.48;100791.22;4993412;28;20548;-80
2022/08/22 06:18:15;;;;;;;27.83;25.73;;;;;;;24.42;56.21;100782.81;4993544;28;20164;-80
2022/08/22 06:20:45;;;;;;;15.35;14.27;;;;;;;24.48;56.20;100783.94;4993557;28;20437;-79
2022/08/22 06:23:17;;;;;;;22.02;20.63;;;;;;;24.51;56.02;100777.56;4993563;28;20037;-80
2022/08/22 06:25:46;;;;;;;23.50;22.05;;;;;;;24.54;56.00;100782.34;4993012;28;20022;-79
2022/08/22 06:28:20;;;;;;;25.20;23.83;;;;;;;24.61;55.86;100779.50;4993542;28;20034;-80
2022/08/22 06:30:50;;;;;;;20.48;19.00;;;;;;;24.56;55.73;100771.56;4993505;28;20086;-82
2022/08/22 06:33:22;;;;;;;24.42;22.92;;;;;;;24.54;55.81;100784.34;4993553;28;20026;-82
2022/08/22 06:38:59;;;;;;;13.93;12.88;;;;;;;24.58;56.01;100779.53;4993853;28;20549;-83
2022/08/22 06:41:29;;;;;;;11.15;10.13;;;;;;;24.52;56.17;100775.56;5008312;28;20077;-80
2022/08/22 06:43:57;;;;;;;9.75;8.95;;;;;;;24.66;56.18;100781.09;4993473;28;20441;-82
2022/08/22 06:46:27;;;;;;;15.88;14.70;;;;;;;24.75;55.53;100781.41;4993334;28;20069;-83
2022/08/22 06:48:55;;;;;;;16.95;12.05;;;;;;;24.68;56.20;100784.25;4993386;28;20046;-81
2022/08/22 06:51:23;;;;;;;15.35;13.48;;;;;;;24.78;55.74;100788.97;4993257;28;20044;-83
2022/08/22 06:53:55;;;;;;;17.65;16.02;;;;;;;24.73;55.74;100792.22;4993373;28;20022;-82
2022/08/22 06:56:24;;;;;;;11.65;10.73;;;;;;;24.79;55.95;100801.75;4993201;28;20037;-83
2022/08/22 06:58:55;;;;;;;26.63;24.63;;;;;;;24.76;56.23;100791.38;4993265;28;20049;-80
2022/08/22 07:01:24;;;;;;;10.27;9.48;;;;;;;24.86;56.06;100795.31;4993005;28;20038;-83
2022/08/22 07:03:53;;;;;;;20.15;18.95;;;;;;;24.88;55.99;100799.31;4990997;28;20027;-82
2022/08/22 07:06:40;;;;;;;15.20;14.02;;;;;;;24.84;56.57;100792.13;4990804;28;20524;-82
2022/08/22 07:09:17;;;;;;;11.02;9.93;;;;;;;24.92;56.35;100793.69;4993103;28;20023;-79
2022/08/22 07:11:43;;;;;;;17.42;16.40;;;;;;;24.95;56.05;100787.28;4992390;28;20137;-81
2022/08/22 07:14:13;;;;;;;9.30;8.63;;;;;;;24.95;56.02;100789.28;4992885;28;20469;-78
2022/08/22 07:16:43;;;;;;;;;;;;;;;24.80;56.67;100789.38;4996645;28;20103;-80
2022/08/22 07:19:22;;;;;;;11.90;10.90;;;;;;;24.76;56.89;100790.59;5004987;28;19924;-83
2022/08/22 07:21:47;;;;;;;14.50;9.18;;;;;;;24.82;56.23;100786.97;5005389;28;20049;-80
2022/08/22 07:24:23;;;;;;;12.90;12.00;;;;;;;24.89;56.18;100775.75;4995148;28;20057;-83
2022/08/22 07:27:17;;;;;;;10.75;10.10;;;;;;;24.98;55.85;100763.31;5004439;28;20034;-81
2022/08/22 07:30:10;;;;;;;10.82;9.93;;;;;;;24.92;55.88;100777.69;4999973;28;20034;-83
2022/08/22 07:32:53;;;;;;;15.63;14.40;;;;;;;24.85;56.65;100763.78;5015541;28;20093;-83
2022/08/22 07:35:27;;;;;;;26.60;24.75;;;;;;;24.81;56.85;100767.81;4987861;28;20393;-81
2022/08/22 07:38:41;;;;;;;21.08;19.83;;;;;;;24.84;56.41;100770.56;4997164;28;20088;-83
2022/08/22 07:41:23;;;;;;;22.65;21.17;;;;;;;24.73;57.03;100771.88;4996400;28;20058;-81
2022/08/22 07:43:56;;;;;;;15.77;14.75;;;;;;;24.78;56.57;100766.63;5000427;28;20058;-81
2022/08/22 07:46:27;;;;;;;23.55;22.13;;;;;;;24.72;56.62;100781.44;5011356;28;20030;-82
2022/08/22 07:49:16;;;;;;;34.13;19.73;;;;;;;24.73;56.66;100778.25;4995568;28;20037;-79
2022/08/22 07:51:45;;;;;;;27.13;25.38;;;;;;;24.74;56.66;100779.03;4974390;28;20042;-81
2022/08/22 07:54:16;;;;;;;17.45;16.17;;;;;;;24.75;56.56;100783.41;4996117;28;20018;-77
2022/08/22 07:57:00;;;;;;;6.93;6.15;;;;;;;24.76;56.43;100779.41;4994169;28;20030;-83
2022/08/22 07:59:28;;;;;;;19.27;17.98;;;;;;;24.88;55.90;100774.16;4980247;28;20026;-81
2022/08/22 08:01:57;;;;;;;17.50;14.77;;;;;;;24.78;56.68;100766.63;4992900;28;20029;-80
2022/08/22 08:04:29;;;;;;;24.80;23.20;;;;;;;24.79;56.12;100773.03;4994997;28;20031;-81
2022/08/22 08:06:59;;;;;;;25.83;23.95;;;;;;;24.77;56.34;100773.41;4994306;28;20050;-82
2022/08/22 08:09:33;;;;;;;23.23;21.00;;;;;;;24.72;56.35;100773.06;4995176;28;20026;-81
2022/08/22 08:12:02;;;;;;;13.32;12.10;;;;;;;24.77;55.85;100783.78;4993096;28;20101;-81
2022/08/22 08:14:28;;;;;;;13.00;12.10;;;;;;;24.74;56.34;100781.84;4993703;28;20030;-80
2022/08/22 08:17:11;;;;;;;11.02;10.13;;;;;;;24.79;56.04;100782.19;4995750;28;20493;-79
2022/08/22 08:19:40;;;;;;;21.25;20.15;;;;;;;24.87;55.67;100778.16;4996124;28;20026;-81
2022/08/22 08:22:06;;;;;;;12.85;12.02;;;;;;;24.91;56.15;100787.28;4993048;28;20027;-80
2022/08/22 08:24:38;;;;;;;13.95;12.80;;;;;;;24.94;55.73;100791.28;4994129;28;20045;-79
2022/08/22 08:30:08;;;;;;;13.35;12.65;;;;;;;25.13;55.60;100782.38;4994275;28;20084;-82
2022/08/22 08:32:37;;;;;;;23.45;22.20;;;;;;;25.19;55.73;100788.31;4995355;28;20044;-80
2022/08/22 08:35:34;;;;;;;16.48;15.45;;;;;;;25.25;55.44;100781.09;4995700;28;20061;-81
2022/08/22 08:38:00;;;;;;;12.85;11.95;;;;;;;25.33;55.26;100773.44;4994772;28;20081;-79
2022/08/22 08:40:34;;;;;;;19.98;19.02;;;;;;;25.39;55.63;100772.59;4994416;28;20057;-79
2022/08/22 08:43:28;;;;;;;11.75;11.10;;;;;;;25.49;55.38;100778.47;4994146;28;20485;-79
2022/08/22 08:46:03;;;;;;;8.60;7.97;;;;;;;25.70;55.07;100765.06;5003527;28;20045;-80
2022/08/22 08:49:05;;;;;;;7.43;6.93;;;;;;;25.81;55.16;100762.19;5010389;28;20026;-80
2022/08/22 08:51:49;;;;;;;8.57;7.93;;;;;;;26.00;55.07;100769.19;4995413;28;20042;-81
2022/08/22 08:54:29;;;;;;;9.10;8.30;;;;;;;26.11;55.09;100769.03;4995348;28;20105;-80
2022/08/22 08:57:22;;;;;;;7.50;6.90;;;;;;;26.16;54.99;100765.78;4989322;28;20068;-81
2022/08/22 09:00:10;;;;;;;9.07;8.45;;;;;;;26.33;55.34;100766.75;4994800;28;20493;-81
2022/08/22 09:02:57;;;;;;;13.10;12.40;;;;;;;26.36;54.34;100763.13;4993728;28;20392;-80
2022/08/22 09:06:01;;;;;;;4.13;3.60;;;;;;;26.57;54.09;100770.47;4994720;28;20138;-80
2022/08/22 09:09:05;;;;;;;10.95;10.25;;;;;;;26.64;53.43;100764.75;4992212;28;20030;-80
2022/08/22 09:11:56;;;;;;;6.57;6.18;;;;;;;26.65;53.43;100771.94;4994132;28;20428;-80
2022/08/22 09:14:46;;;;;;;4.10;2.70;;;;;;;26.65;53.46;100766.34;4994470;28;20481;-81
2022/08/22 09:17:24;;;;;;;;;;;;;;;26.71;53.27;100773.88;4992355;28;20038;-80
2022/08/22 09:20:17;;;;;;;3.40;2.72;;;;;;;26.81;53.22;100769.31;4994506;28;19928;-81
2022/08/22 09:23:27;;;;;;;4.65;2.75;;;;;;;26.90;52.85;100777.97;4993222;28;20026;-80
2022/08/22 09:26:05;;;;;;;;;;;;;;;26.81;53.11;100774.91;4962036;28;20053;-80
2022/08/22 09:28:37;;;;;;;2.60;1.60;;;;;;;27.00;52.30;100771.41;4992917;28;19921;-82
2022/08/22 09:31:08;;;;;;;4.22;3.20;;;;;;;26.93;52.35;100777.13;4991960;28;20113;-80
2022/08/22 09:34:04;;;;;;;4.82;3.33;;;;;;;26.86;52.50;100779.25;4993935;28;20062;-80
2022/08/22 09:37:00;;;;;;;5.45;5.00;;;;;;;26.71;52.78;100779.47;4993790;28;20038;-80
2022/08/22 09:39:50;;;;;;;174.95;22.48;;;;;;;26.52;53.61;100786.53;4994121;28;20026;-79
2022/08/22 09:42:21;;;;;;;2.22;1.75;;;;;;;26.54;53.08;100786.91;4993696;28;20030;-80
2022/08/22 09:44:47;;;;;;;0.80;0.80;;;;;;;26.33;53.64;100778.75;5009011;28;20027;-80
2022/08/22 09:47:30;;;;;;;2.53;1.30;;;;;;;26.22;53.71;100783.69;4994227;28;20029;-77
2022/08/22 09:50:02;;;;;;;1.45;0.90;;;;;;;26.30;53.52;100782.41;4993986;28;20073;-81
2022/08/22 09:52:48;;;;;;;1.83;0.90;;;;;;;26.38;53.29;100785.91;4993469;28;20065;-82
2022/08/22 09:55:26;;;;;;;1.02;0.80;;;;;;;26.39;53.28;100782.72;4993714;28;20030;-80
2022/08/22 09:58:04;;;;;;;4.80;1.55;;;;;;;26.39;53.46;100782.72;5009632;28;20030;-80
2022/08/22 10:00:57;;;;;;;3.35;1.15;;;;;;;26.49;53.48;100781.78;4993520;28;20117;-80
2022/08/22 10:03:44;;;;;;;3.50;1.38;;;;;;;26.43;53.76;100775.03;4993902;28;20022;-80
2022/08/22 10:06:18;;;;;;;2.30;1.48;;;;;;;26.55;53.46;100782.09;4989326;28;20374;-80
2022/08/22 10:09:07;;;;;;;3.42;2.58;;;;;;;26.64;53.49;100778.78;4993082;28;20432;-79
2022/08/22 10:11:40;;;;;;;2.20;1.83;;;;;;;26.42;53.93;100775.47;4993198;28;20050;-79
2022/08/22 10:14:20;;;;;;;1.75;1.50;;;;;;;26.34;53.87;100768.34;5008808;28;20042;-80
2022/08/22 10:17:04;;;;;;;;;;;;;;;26.42;53.85;100775.47;4991857;28;20485;-79
2022/08/22 10:19:30;;;;;;;2.53;1.83;;;;;;;26.19;54.61;100771.31;5008531;28;19976;-80
2022/08/22 10:22:17;;;;;;;1.70;1.45;;;;;;;26.33;54.13;100772.38;4993470;28;20031;-79
2022/08/22 10:25:06;;;;;;;2.20;1.60;;;;;;;26.44;53.96;100768.22;4993049;28;20026;-80
2022/08/22 10:28:03;;;;;;;3.05;1.73;;;;;;;26.56;53.38;100783.69;4993313;28;20026;-80
2022/08/22 10:30:36;;;;;;;1.88;1.48;;;;;;;26.36;54.72;100771.50;4938795;28;20593;-78
2022/08/22 10:33:23;;;;;;;3.70;1.92;;;;;;;26.42;54.10;100779.06;4991954;28;20026;-80
2022/08/22 10:36:06;;;;;;;1.83;1.50;;;;;;;26.46;54.07;100774.22;4977926;28;20041;-79
2022/08/22 10:38:41;;;;;;;2.55;1.70;;;;;;;26.41;54.58;100771.09;4993237;28;20080;-80
2022/08/22 10:41:23;;;;;;;3.13;1.80;;;;;;;26.30;54.68;100779.63;4992992;28;20034;-79
2022/08/22 10:44:33;;;;;;;2.75;1.95;;;;;;;26.59;54.17;100774.44;4992831;28;20038;-78
2022/08/22 10:47:07;;;;;;;3.38;2.40;;;;;;;26.59;54.36;100777.22;4949642;28;20046;-79
2022/08/22 10:49:44;;;;;;;3.83;2.05;;;;;;;26.50;55.16;100776.97;4993371;28;20385;-80
2022/08/22 10:52:23;;;;;;;2.95;1.95;;;;;;;26.85;54.70;100770.06;4993127;28;20035;-79
2022/08/22 10:54:50;;;;;;;2.88;1.83;;;;;;;27.00;54.27;100767.81;4996718;28;20034;-79
2022/08/22 10:57:35;;;;;;;2.55;1.80;;;;;;;26.98;54.57;100768.25;4997243;28;20053;-81
2022/08/22 11:00:19;;;;;;;3.53;1.85;;;;;;;26.73;55.47;100774.22;4984255;28;20476;-79
2022/08/22 11:03:03;;;;;;;3.47;2.00;;;;;;;27.26;53.87;100771.81;4996798;28;20052;-80
2022/08/22 11:05:42;;;;;;;5.05;1.85;;;;;;;27.03;54.17;100775.38;4994114;28;20481;-81
2022/08/22 11:08:20;;;;;;;2.05;1.50;;;;;;;27.27;54.01;100776.22;4994092;28;20030;-86
2022/08/22 11:11:07;;;;;;;2.47;1.60;;;;;;;27.69;53.62;100771.09;4996013;28;20444;-85
2022/08/22 11:14:05;;;;;;;3.28;2.05;;;;;;;27.83;53.41;100770.81;4996886;28;20030;-83
2022/08/22 11:17:01;;;;;;;2.35;1.70;;;;;;;27.77;53.27;100769.75;5013329;28;20065;-84
2022/08/22 11:20:18;;;;;;;3.85;2.10;;;;;;;28.31;52.26;100764.63;4996883;28;20034;-79
2022/08/22 11:23:05;;;;;;;2.67;1.83;;;;;;;28.17;51.01;100771.31;4984739;28;20118;-83
2022/08/22 11:26:21;;;;;;;4.05;2.10;;;;;;;28.20;50.44;100764.84;4996084;28;20098;-76
2022/08/22 11:29:16;;;;;;;3.47;2.22;;;;;;;28.02;50.35;100772.84;4984356;28;20152;-76
2022/08/22 11:31:54;;;;;;;2.90;1.90;;;;;;;28.09;49.60;100767.06;4994834;28;20124;-76
2022/08/22 11:34:34;;;;;;;3.65;2.40;;;;;;;28.08;49.93;100768.31;4996184;28;20042;-77
2022/08/22 11:37:26;;;;;;;2.80;1.55;;;;;;;27.97;50.06;100767.75;4996393;28;20038;-77
2022/08/22 11:40:05;;;;;;;2.78;1.55;;;;;;;27.88;49.98;100773.13;4995886;28;20030;-76
2022/08/22 11:42:46;;;;;;;4.77;1.97;;;;;;;27.64;49.32;100763.94;4996004;28;20109;-76
2022/08/22 11:45:19;;;;;;;2.33;1.35;;;;;;;27.83;48.43;100768.03;4996028;28;20108;-76
2022/08/22 11:47:59;;;;;;;3.95;1.95;;;;;;;28.12;48.30;100762.63;4997140;28;20033;-76
2022/08/22 11:50:34;;;;;;;4.45;1.67;;;;;;;28.12;47.73;100759.81;4996185;28;20109;-76
2022/08/22 11:53:23;;;;;;;3.15;1.60;;;;;;;28.14;47.59;100752.53;4995953;28;20041;-76
2022/08/22 11:55:59;;;;;;;3.42;1.42;;;;;;;27.90;47.49;100762.25;4996044;28;20050;-78
2022/08/22 11:58:54;;;;;;;7.32;1.38;;;;;;;28.26;47.31;100744.66;4994489;28;20041;-76
2022/08/22 12:01:49;;;;;;;9.98;2.25;;;;;;;28.62;47.21;100748.28;4998210;28;20109;-77
2022/08/22 12:04:36;;;;;;;2.65;1.40;;;;;;;28.71;46.81;100744.88;4988159;28;20464;-79
2022/08/22 12:07:29;;;;;;;5.93;2.08;;;;;;;28.82;46.10;100744.63;4980155;28;20035;-78
2022/08/22 12:10:12;;;;;;;6.30;1.55;;;;;;;28.85;44.81;100747.34;4978376;28;20088;-77
2022/08/22 12:13:12;;;;;;;2.15;1.15;;;;;;;28.80;44.26;100756.31;4976284;28;20046;-79
2022/08/22 12:15:43;;;;;;;;;;;;;;;28.64;44.52;100750.66;4979217;28;20173;-77
2022/08/22 12:18:55;;;;;;;2.90;1.50;;;;;;;28.43;44.79;100754.75;5001594;28;19920;-77
2022/08/22 12:21:36;;;;;;;1.20;1.00;;;;;;;28.64;44.74;100757.09;4982906;28;20038;-77
2022/08/22 12:24:36;;;;;;;4.07;1.40;;;;;;;28.53;44.50;100753.72;5005066;28;20056;-78
2022/08/22 12:27:02;;;;;;;4.00;1.77;;;;;;;28.53;44.98;100759.34;4990926;28;20038;-77
2022/08/22 12:29:43;;;;;;;3.63;1.30;;;;;;;28.55;44.75;100751.25;5004717;28;20030;-77
2022/08/22 12:32:39;;;;;;;2.70;1.40;;;;;;;28.73;44.59;100754.47;5004422;28;20030;-77
2022/08/22 12:35:25;;;;;;;4.10;1.83;;;;;;;28.53;44.43;100753.72;4999795;28;20065;-78
2022/08/22 12:38:03;;;;;;;2.05;1.02;;;;;;;28.91;44.68;100758.91;5000594;28;20029;-78